Northfield, New Hampshire
Current Conditions -  °F | °C
As of 5:55 PM on Saturday 25 Oct 2014 (Local Time) from KLCI Reporting Station
Overcast Overcast  
Wind Chill: 59°   Ceiling: 5500
Heat Index: 59°   Visibility: 10mi
Dew Point: 39°   Wind: 6mph
Humidity: 48%   Direction: 270°W
Pressure: 29.55"   Gusts: NA
Location:  43.4812°N, 71.5745°W
Report Text: KLCI 252155Z AUTO 27005KT 10SM OVC055 15/04 A2955 RMK AO1
Loading
Personal Weather Stations






























Interactive Weather Map
Tropical Storm Tracking
New forecast layout! Learn more

10-Day Weather Forecast

Advertisements
Track Severe Weather on mobile